Archival Weather

Aeroparque Jorge Newbery

Aeroparque Jorge Newbery, Argentina (SABE)

Report from: Saturday, May 14, 2022 4:00 AM -03
Current time: Sunday, June 26, 2022 2:32 PM -03

Current weather
Weather history
Weather forecast

Temperature15.0°C (59.0°F)
Dew point11.0°C (51.8°F)
Winds 2 kts (1 m/s, 2.3 mph) Vrb
Winds variableWinds variable
Clouds Sky clear
Altimeter30.09 in.Hg (1019 mB)
Relative humidity77 %
Density altitude-9 ft. (-3 m)
Remarks Ceiling and visibility OK
Corrected report
No significant changes expected in the next two hours
Flight conditions Visual Meteorological Conditions
Raw dataCOR SABE 140700Z VRB02KT CAVOK 15/11 Q1019 NOSIG
An error has occurred. This application may no longer respond until reloaded. Reload 🗙